createdAt,value
2023-01-19T05:02:53.680Z,-0.16
2023-01-19T05:07:05.198Z,-0.12
2023-01-19T05:11:16.724Z,-0.08
2023-01-19T05:15:28.216Z,-0.13
2023-01-19T05:19:39.737Z,-0.12
2023-01-19T05:23:51.217Z,-0.13
2023-01-19T05:28:04.049Z,-0.12
2023-01-19T05:32:15.650Z,-0.11
2023-01-19T05:36:27.874Z,-0.07
2023-01-19T05:40:39.372Z,-0.12
2023-01-19T05:44:50.916Z,-0.09
2023-01-19T05:49:04.243Z,-0.06
2023-01-19T05:53:16.549Z,-0.03
2023-01-19T05:57:28.196Z,-0.05
2023-01-19T06:01:40.388Z,-0.09
2023-01-19T06:05:52.047Z,-0.07
2023-01-19T06:10:03.731Z,-0.02
2023-01-19T06:14:15.471Z,0.01
2023-01-19T06:18:27.433Z,0.03
2023-01-19T06:22:39.012Z,-0.02
2023-01-19T06:26:50.973Z,-0.04
2023-01-19T06:31:02.618Z,0.01
2023-01-19T06:35:14.165Z,0.04
2023-01-19T06:39:25.717Z,0.07
2023-01-19T06:43:37.253Z,0.14
2023-01-19T06:47:48.774Z,0.07
2023-01-19T06:52:00.260Z,0.10
2023-01-19T06:56:11.833Z,0.03
2023-01-19T07:00:24.245Z,0.11
2023-01-19T07:04:35.685Z,0.07
2023-01-19T07:08:47.177Z,0.11
2023-01-19T07:12:59.090Z,0.09
2023-01-19T07:17:12.665Z,0.07
2023-01-19T07:21:24.172Z,0.12
2023-01-19T07:25:35.626Z,0.14
2023-01-19T07:29:47.154Z,0.13
2023-01-19T07:33:58.733Z,0.17
2023-01-19T07:38:10.212Z,0.23
2023-01-19T07:42:21.754Z,0.30
2023-01-19T07:46:33.200Z,0.31
2023-01-19T07:50:44.739Z,0.29
2023-01-19T07:54:56.189Z,0.33
2023-01-19T07:59:09.587Z,0.33
2023-01-19T08:03:21.200Z,0.38
2023-01-19T08:07:33.701Z,0.30
2023-01-19T08:11:45.234Z,0.35
2023-01-19T08:15:56.778Z,0.31
2023-01-19T08:20:09.396Z,0.42
2023-01-19T08:24:22.929Z,0.43
2023-01-19T08:28:34.449Z,0.49
2023-01-19T08:32:45.931Z,0.45
2023-01-19T08:36:58.437Z,0.39
2023-01-19T08:41:10.589Z,0.49
2023-01-19T08:45:22.350Z,0.50
2023-01-19T08:49:33.824Z,0.56
2023-01-19T08:53:45.441Z,0.54
2023-01-19T08:57:59.907Z,0.53
2023-01-19T09:02:12.093Z,0.51
2023-01-19T09:06:25.354Z,0.56
2023-01-19T09:10:39.098Z,0.57
2023-01-19T09:14:50.772Z,0.49
2023-01-19T09:19:02.511Z,0.52
2023-01-19T09:23:16.979Z,0.57
2023-01-19T09:27:28.465Z,0.61
2023-01-19T09:31:41.296Z,0.65
2023-01-19T09:35:52.950Z,0.65
2023-01-19T09:40:05.758Z,0.73
2023-01-19T09:44:27.836Z,0.76
2023-01-19T09:48:45.709Z,0.86
2023-01-19T09:53:07.462Z,0.89
2023-01-19T09:57:19.152Z,0.98
2023-01-19T10:01:35.293Z,1.03
2023-01-19T10:05:56.445Z,1.05
2023-01-19T10:10:17.711Z,1.04
2023-01-19T10:15:01.664Z,1.09
2023-01-19T10:19:38.169Z,1.11
2023-01-19T10:24:13.359Z,1.15
2023-01-19T10:28:26.841Z,1.19
2023-01-19T10:32:39.203Z,1.17
2023-01-19T10:36:56.909Z,1.28
2023-01-19T10:41:17.201Z,1.30
2023-01-19T10:45:31.356Z,1.38
2023-01-19T10:49:44.096Z,1.31
2023-01-19T10:53:58.908Z,1.33
2023-01-19T10:58:31.128Z,1.43
2023-01-19T11:02:50.744Z,1.43
2023-01-19T11:07:25.677Z,1.56
2023-01-19T11:11:46.520Z,1.67
2023-01-19T11:16:04.411Z,1.74
2023-01-19T11:20:25.221Z,1.88
2023-01-19T11:24:38.966Z,1.94
2023-01-19T11:28:53.141Z,2.05
2023-01-19T11:33:04.826Z,2.18
2023-01-19T11:37:16.239Z,2.43
2023-01-19T11:41:35.562Z,2.69
2023-01-19T11:45:47.496Z,2.61
2023-01-19T11:50:17.774Z,2.57
2023-01-19T11:54:34.844Z,2.56
2023-01-19T11:58:47.372Z,2.66
2023-01-19T12:03:08.191Z,2.61
2023-01-19T12:07:28.837Z,2.65
2023-01-19T12:11:48.782Z,2.57
2023-01-19T12:16:03.319Z,2.50
2023-01-19T12:20:28.087Z,2.34
2023-01-19T12:25:03.092Z,2.27
2023-01-19T12:29:22.465Z,2.30
2023-01-19T12:33:36.171Z,2.31
2023-01-19T12:37:47.829Z,2.29
2023-01-19T12:42:13.210Z,2.35
2023-01-19T12:46:29.466Z,2.42
2023-01-19T12:50:46.326Z,2.40
2023-01-19T12:55:02.784Z,2.38
2023-01-19T12:59:27.817Z,2.30
2023-01-19T13:03:44.273Z,2.29
2023-01-19T13:08:01.855Z,2.31
2023-01-19T13:12:21.569Z,2.29
2023-01-19T13:16:36.016Z,2.30
2023-01-19T13:20:52.997Z,2.25
2023-01-19T13:25:12.280Z,2.18
2023-01-19T13:29:31.619Z,2.11
2023-01-19T13:33:50.676Z,2.16
2023-01-19T13:38:03.671Z,2.21
2023-01-19T13:42:29.349Z,2.21
2023-01-19T13:46:41.175Z,2.17
2023-01-19T13:51:04.781Z,2.23
2023-01-19T13:55:16.650Z,2.38
2023-01-19T13:59:28.449Z,2.39
2023-01-19T14:03:40.447Z,2.37
2023-01-19T14:08:12.822Z,2.37
2023-01-19T14:12:25.705Z,2.39
2023-01-19T14:16:37.269Z,2.27
2023-01-19T14:21:01.274Z,2.25
2023-01-19T14:25:29.060Z,2.17
2023-01-19T14:29:40.607Z,2.13
2023-01-19T14:33:54.987Z,2.16
2023-01-19T14:38:14.034Z,2.20
2023-01-19T14:42:44.342Z,2.24
2023-01-19T14:46:56.633Z,2.21
2023-01-19T14:51:15.270Z,2.20
2023-01-19T14:55:55.672Z,2.10
2023-01-19T15:00:17.807Z,2.03
2023-01-19T15:04:29.555Z,2.04
2023-01-19T15:08:41.341Z,1.98
2023-01-19T15:12:54.641Z,1.90
2023-01-19T15:17:06.140Z,1.98
2023-01-19T15:21:21.552Z,1.94
2023-01-19T15:25:33.017Z,1.99
2023-01-19T15:29:45.991Z,1.96
2023-01-19T15:33:57.604Z,1.95
2023-01-19T15:38:09.100Z,1.94
2023-01-19T15:42:20.671Z,1.94
2023-01-19T15:46:34.850Z,1.93
2023-01-19T15:50:47.904Z,1.85
2023-01-19T15:54:59.634Z,1.84
2023-01-19T15:59:11.279Z,1.88
2023-01-19T16:03:24.514Z,1.82
2023-01-19T16:07:36.173Z,1.77
2023-01-19T16:11:47.771Z,1.77
2023-01-19T16:16:08.637Z,1.77
2023-01-19T16:20:20.205Z,1.77
2023-01-19T16:24:32.421Z,1.76
2023-01-19T16:28:43.906Z,1.70
2023-01-19T16:32:55.387Z,1.69
2023-01-19T16:37:07.060Z,1.71
2023-01-19T16:41:19.133Z,1.72
2023-01-19T16:45:30.649Z,1.70
2023-01-19T16:49:42.329Z,1.68
2023-01-19T16:53:53.932Z,1.67
2023-01-19T16:58:05.407Z,1.71
2023-01-19T17:02:16.966Z,1.70
2023-01-19T17:06:30.065Z,1.68
2023-01-19T17:10:43.531Z,1.67
2023-01-19T17:14:55.117Z,1.68
2023-01-19T17:19:07.783Z,1.72
2023-01-19T17:23:19.275Z,1.75
2023-01-19T17:27:31.029Z,1.75
2023-01-19T17:31:43.201Z,1.66
2023-01-19T17:35:54.746Z,1.69
2023-01-19T17:40:06.847Z,1.63
2023-01-19T17:44:18.338Z,1.53
2023-01-19T17:48:29.791Z,1.50
2023-01-19T17:52:41.289Z,1.53
2023-01-19T17:56:52.782Z,1.55
2023-01-19T18:01:25.498Z,1.54
2023-01-19T18:05:37.011Z,1.47
2023-01-19T18:09:48.551Z,1.52
2023-01-19T18:14:02.910Z,1.53
2023-01-19T18:18:15.008Z,1.58
2023-01-19T18:22:26.516Z,1.54
2023-01-19T18:26:38.929Z,1.49
2023-01-19T18:30:50.663Z,1.52
2023-01-19T18:35:02.557Z,1.46
2023-01-19T18:39:14.140Z,1.47
2023-01-19T18:43:25.703Z,1.47
2023-01-19T18:47:37.417Z,1.50
2023-01-19T18:51:48.901Z,1.47
2023-01-19T18:56:04.736Z,1.46
2023-01-19T19:00:17.061Z,1.43
2023-01-19T19:04:28.675Z,1.44
2023-01-19T19:08:40.430Z,1.39
2023-01-19T19:12:51.933Z,1.45
2023-01-19T19:17:04.172Z,1.38
2023-01-19T19:21:16.474Z,1.43
2023-01-19T19:25:27.998Z,1.37
2023-01-19T19:29:43.964Z,1.42
2023-01-19T19:33:57.112Z,1.31
2023-01-19T19:38:08.686Z,1.31
2023-01-19T19:42:20.361Z,1.30
2023-01-19T19:46:32.049Z,1.32
2023-01-19T19:50:43.585Z,1.30
2023-01-19T19:54:55.149Z,1.29
2023-01-19T19:59:07.564Z,1.28
2023-01-19T20:03:19.869Z,1.29
2023-01-19T20:07:31.595Z,1.25
2023-01-19T20:11:45.094Z,1.23
2023-01-19T20:15:56.607Z,1.19
2023-01-19T20:20:08.905Z,1.19
2023-01-19T20:24:20.994Z,1.19
2023-01-19T20:28:32.495Z,1.12
2023-01-19T20:32:44.233Z,1.06
2023-01-19T20:36:55.757Z,1.06
2023-01-19T20:41:09.072Z,1.00
2023-01-19T20:45:20.610Z,1.00
2023-01-19T20:49:32.360Z,1.00
2023-01-19T20:53:43.897Z,0.99
2023-01-19T20:57:55.385Z,0.97
2023-01-19T21:02:12.355Z,0.94
2023-01-19T21:06:24.878Z,0.91
2023-01-19T21:10:36.416Z,0.83
2023-01-19T21:14:47.889Z,0.80
2023-01-19T21:18:59.787Z,0.77
2023-01-19T21:23:11.275Z,0.73
2023-01-19T21:27:22.806Z,0.71
2023-01-19T21:31:34.305Z,0.65
2023-01-19T21:35:55.937Z,0.62
2023-01-19T21:40:07.981Z,0.59
2023-01-19T21:44:19.542Z,0.59
2023-01-19T21:48:31.358Z,0.60
2023-01-19T21:52:42.846Z,0.57
2023-01-19T21:56:54.309Z,0.55
2023-01-19T22:01:10.797Z,0.56
2023-01-19T22:05:22.898Z,0.54
2023-01-19T22:09:35.115Z,0.56
2023-01-19T22:13:47.154Z,0.52
2023-01-19T22:17:58.652Z,0.54
2023-01-19T22:22:10.147Z,0.54
2023-01-19T22:26:21.925Z,0.56
